»·PEaware :: N623JM KLAX-KSAN

N623JM :: KLAX-KSAN

FLIGHT INFORMATION

Flight Status: Arrived
Operator: Privately registered:
United States
More flights under this callsign
Pilot: Joe M. (18884)
Aircraft: BEECH AIRCRAFT BARON
(BE58)
More flights by this aircraft type
Origin: KLAX Los Angeles Intl
United States
Destination: KSAN San Diego Intl-Lindbergh
United States
More flights between these airports :: More routes between these airports
Route: +
File this flight plan on PilotEdge
Remarks: CAT 11
Altitude:
(Current/Filed)
7,500ft
Speed:
(Current/Filed)
200kts
Departed: 06-May-18 11:31 AM
Arrived: 06-May-18 12:22 PM
Distance/Time
Traveled:
94nm/0:51
Distance/Time
To Go:
Arrived

Flight Plot

Page will automatically refresh every two minutes.


Map Options




Map Legend


Flown Route
Filed Route
Departure Airport
Arrival Airport
Navaid (VOR, NDB)
Fix

Horizontal Profiles

Position Reports

Time Latitude Longitude Heading Altitude Ground
Speed
06-May-18 11:16 33.933536 -118.396947 287 105ft 0kts
06-May-18 11:17 33.933536 -118.396947 287 105ft 0kts
06-May-18 11:18 33.933536 -118.396947 287 105ft 0kts
06-May-18 11:19 33.933536 -118.396947 287 105ft 0kts
06-May-18 11:20 33.933536 -118.396947 287 105ft 0kts
06-May-18 11:21 33.933536 -118.396947 287 105ft 0kts
06-May-18 11:22 33.933553 -118.397011 287 105ft 0kts
06-May-18 11:23 33.933553 -118.397011 287 105ft 0kts
06-May-18 11:24 33.933597 -118.397173 289 105ft 0kts
06-May-18 11:25 33.934232 -118.398139 355 105ft 6kts
06-May-18 11:26 33.934982 -118.393923 81 100ft 12kts
06-May-18 11:27 33.935330 -118.390368 84 99ft 9kts
06-May-18 11:28 33.935875 -118.385176 81 96ft 13kts
06-May-18 11:29 33.936511 -118.382762 357 92ft 0kts
06-May-18 11:30 33.937212 -118.383106 302 92ft 10kts
06-May-18 11:31 33.934022 -118.414393 261 497ft 142kts
06-May-18 11:32 33.927333 -118.459828 259 1693ft 131kts
06-May-18 11:33 33.922268 -118.505916 262 2009ft 154kts
06-May-18 11:34 33.917583 -118.558616 262 2062ft 154kts
06-May-18 11:35 33.913844 -118.605706 262 2521ft 134kts
06-May-18 11:36 33.910207 -118.652553 261 2501ft 146kts
06-May-18 11:37 33.880411 -118.667838 145 2503ft 140kts
06-May-18 11:38 33.848972 -118.639377 142 2499ft 142kts
06-May-18 11:39 33.818233 -118.611782 142 2500ft 137kts
06-May-18 11:40 33.787229 -118.584063 142 2499ft 140kts
06-May-18 11:41 33.756541 -118.556098 142 2500ft 142kts
06-May-18 11:42 33.724995 -118.526977 142 2825ft 151kts
06-May-18 11:43 33.690603 -118.494997 142 3723ft 159kts
06-May-18 11:44 33.655941 -118.462026 142 4620ft 160kts
06-May-18 11:45 33.621490 -118.428516 142 5475ft 160kts
06-May-18 11:46 33.582851 -118.390918 142 5418ft 188kts
06-May-18 11:47 33.542112 -118.351284 141 5420ft 194kts
06-May-18 11:48 33.520209 -118.293971 108 5415ft 195kts
06-May-18 11:49 33.504010 -118.234372 105 5799ft 183kts
06-May-18 11:50 33.496625 -118.174698 98 6124ft 181kts
06-May-18 11:51 33.489454 -118.115015 98 6434ft 181kts
06-May-18 11:52 33.482169 -118.055713 98 6730ft 180kts
06-May-18 11:53 33.474945 -117.996300 98 7013ft 181kts
06-May-18 11:54 33.467556 -117.934868 98 6796ft 197kts
06-May-18 11:55 33.456607 -117.869753 101 6369ft 201kts
06-May-18 11:56 33.439505 -117.807642 114 5932ft 193kts
06-May-18 11:57 33.413122 -117.752060 128 5464ft 191kts
06-May-18 11:58 33.382457 -117.704125 128 5520ft 172kts
06-May-18 11:59 33.348876 -117.663937 140 5516ft 170kts
06-May-18 12:00 33.313304 -117.626616 141 5518ft 169kts
06-May-18 12:01 33.277895 -117.589690 141 5518ft 169kts
06-May-18 12:02 33.242148 -117.552692 141 5511ft 170kts
06-May-18 12:03 33.206080 -117.515877 141 5503ft 171kts
06-May-18 12:04 33.169694 -117.479265 141 5501ft 171kts
06-May-18 12:05 33.133125 -117.442986 141 5498ft 172kts
06-May-18 12:06 33.095604 -117.406439 141 5019ft 174kts
06-May-18 12:07 33.054137 -117.383061 219 4366ft 169kts
06-May-18 12:08 33.074676 -117.395673 50 3648ft 169kts
06-May-18 12:09 33.066597 -117.347596 147 3039ft 169kts
06-May-18 12:10 33.028602 -117.320947 149 2902ft 151kts
06-May-18 12:11 32.992584 -117.300358 158 3527ft 142kts
06-May-18 12:12 32.949903 -117.287174 167 3394ft 162kts
06-May-18 12:13 32.910471 -117.276666 167 3389ft 135kts
06-May-18 12:14 32.876307 -117.261640 157 3392ft 129kts
06-May-18 12:15 32.844324 -117.243268 142 3395ft 128kts
06-May-18 12:16 32.818628 -117.214303 131 3395ft 128kts
06-May-18 12:17 32.795897 -117.182373 129 3393ft 123kts
06-May-18 12:18 32.771971 -117.153650 143 2975ft 124kts
06-May-18 12:19 32.739734 -117.141905 189 1428ft 121kts
06-May-18 12:20 32.728088 -117.164311 278 378ft 87kts
06-May-18 12:21 32.732626 -117.186024 285 12ft 41kts
06-May-18 12:22 32.732592 -117.189996 287 12ft 15kts
06-May-18 12:23 32.734185 -117.196576 287 11ft 24kts
06-May-18 12:24 32.735572 -117.202175 286 10ft 12kts
06-May-18 12:25 32.735583 -117.205512 225 10ft 22kts
06-May-18 12:26 32.734823 -117.205910 45 10ft 0kts
06-May-18 12:27 32.734823 -117.205910 45 10ft 0kts
06-May-18 12:28 32.734823 -117.205911 45 10ft 0kts
06-May-18 12:29 32.734823 -117.205911 45 10ft 0kts

Navigation Log

Ident Type
1. KLAX Airport
2. KSAN Airport